createdAt,value
2017-07-29T00:00:59.042Z,15.63
2017-07-29T00:02:09.566Z,15.59
2017-07-29T00:03:19.835Z,15.66
2017-07-29T00:04:30.116Z,15.54
2017-07-29T00:05:40.085Z,15.59
2017-07-29T00:06:50.353Z,15.5
2017-07-29T00:08:00.877Z,15.54
2017-07-29T00:09:11.165Z,15.52
2017-07-29T00:10:21.141Z,15.5
2017-07-29T00:11:31.105Z,15.54
2017-07-29T00:12:41.385Z,15.5
2017-07-29T00:13:51.936Z,15.45
2017-07-29T00:15:02.238Z,15.39
2017-07-29T00:16:12.203Z,15.47
2017-07-29T00:17:22.484Z,15.41
2017-07-29T00:18:32.739Z,15.29
2017-07-29T00:19:43.262Z,15.39
2017-07-29T00:20:53.539Z,15.37
2017-07-29T00:22:03.825Z,15.35
2017-07-29T00:23:13.797Z,15.36
2017-07-29T00:24:23.739Z,15.36
2017-07-29T00:25:33.949Z,15.36
2017-07-29T00:26:44.226Z,15.41
2017-07-29T00:27:54.202Z,15.39
2017-07-29T00:29:04.474Z,15.32
2017-07-29T00:30:14.429Z,15.35
2017-07-29T00:31:24.659Z,15.43
2017-07-29T00:32:34.949Z,15.41
2017-07-29T00:33:45.221Z,15.26
2017-07-29T00:34:55.178Z,15.41
2017-07-29T00:36:05.448Z,15.25
2017-07-29T00:37:15.682Z,15.23
2017-07-29T00:38:25.948Z,15.35
2017-07-29T00:39:35.596Z,15.25
2017-07-29T00:40:45.866Z,15.29
2017-07-29T00:41:55.839Z,15.29
2017-07-29T00:43:06.045Z,15.26
2017-07-29T00:44:16.309Z,15.22
2017-07-29T00:45:26.593Z,15.36
2017-07-29T00:46:36.861Z,15.36
2017-07-29T00:47:47.133Z,15.32
2017-07-29T00:48:57.351Z,15.35
2017-07-29T00:50:07.631Z,15.36
2017-07-29T00:51:17.907Z,15.35
2017-07-29T00:52:28.180Z,15.35
2017-07-29T00:53:38.147Z,15.33
2017-07-29T00:54:48.685Z,15.39
2017-07-29T00:55:58.960Z,15.32
2017-07-29T00:57:09.246Z,15.36
2017-07-29T00:58:19.206Z,15.39
2017-07-29T00:59:29.458Z,15.37
2017-07-29T01:00:39.355Z,15.32
2017-07-29T01:01:49.610Z,15.36
2017-07-29T01:02:59.577Z,15.27
2017-07-29T01:04:09.846Z,15.29
2017-07-29T01:05:19.504Z,15.3
2017-07-29T01:06:30.023Z,15.35
2017-07-29T01:07:40.326Z,15.36
2017-07-29T01:08:49.974Z,15.37
2017-07-29T01:10:00.248Z,15.41
2017-07-29T01:11:10.513Z,15.36
2017-07-29T01:12:21.037Z,15.36
2017-07-29T01:13:31.316Z,15.35
2017-07-29T01:14:41.290Z,15.36
2017-07-29T01:15:51.240Z,15.37
2017-07-29T01:17:01.205Z,15.35
2017-07-29T01:18:11.422Z,15.37
2017-07-29T01:19:21.398Z,15.35
2017-07-29T01:20:31.676Z,15.35
2017-07-29T01:21:41.957Z,15.32
2017-07-29T01:22:52.247Z,15.37
2017-07-29T01:24:02.801Z,15.37
2017-07-29T01:25:13.107Z,15.37
2017-07-29T01:26:23.385Z,15.36
2017-07-29T01:27:33.656Z,15.29
2017-07-29T01:28:43.931Z,15.43
2017-07-29T01:29:54.461Z,15.44
2017-07-29T01:31:04.433Z,15.52
2017-07-29T01:32:14.099Z,15.51
2017-07-29T01:33:24.072Z,15.41
2017-07-29T01:34:34.340Z,15.5
2017-07-29T01:35:44.848Z,15.36
2017-07-29T01:36:54.809Z,15.54
2017-07-29T01:38:05.104Z,15.5
2017-07-29T01:39:15.381Z,15.51
2017-07-29T01:40:25.684Z,15.48
2017-07-29T01:41:35.903Z,15.54
2017-07-29T01:42:45.578Z,15.54
2017-07-29T01:43:55.538Z,15.45
2017-07-29T01:45:05.817Z,15.45
2017-07-29T01:46:16.097Z,15.45
2017-07-29T01:47:26.614Z,15.43
2017-07-29T01:48:36.893Z,15.47
2017-07-29T01:49:46.851Z,15.48
2017-07-29T01:50:56.823Z,15.48
2017-07-29T01:52:07.102Z,15.37
2017-07-29T01:53:17.674Z,15.43
2017-07-29T01:54:27.662Z,15.43
2017-07-29T01:55:37.637Z,15.5
2017-07-29T01:56:47.930Z,15.5
2017-07-29T01:57:58.198Z,15.45
2017-07-29T01:59:08.415Z,15.48
2017-07-29T02:00:18.066Z,15.47
2017-07-29T02:01:28.334Z,15.51
2017-07-29T02:02:38.289Z,15.5
2017-07-29T02:03:48.563Z,15.55
2017-07-29T02:04:59.071Z,15.51
2017-07-29T02:06:09.337Z,15.52
2017-07-29T02:07:19.649Z,15.48
2017-07-29T02:08:29.608Z,15.5
2017-07-29T02:09:39.577Z,15.5
2017-07-29T02:10:49.796Z,15.52
2017-07-29T02:11:59.773Z,15.51
2017-07-29T02:13:09.756Z,15.5
2017-07-29T02:14:19.713Z,15.57
2017-07-29T02:15:29.986Z,15.5
2017-07-29T02:16:40.521Z,15.52
2017-07-29T02:17:50.189Z,15.51
2017-07-29T02:19:00.149Z,15.5
2017-07-29T02:20:10.419Z,15.55
2017-07-29T02:21:20.702Z,15.5
2017-07-29T02:22:31.219Z,15.48
2017-07-29T02:23:41.186Z,15.48
2017-07-29T02:24:51.453Z,15.45
2017-07-29T02:26:01.722Z,15.47
2017-07-29T02:27:12.007Z,15.45
2017-07-29T02:28:22.540Z,15.36
2017-07-29T02:29:32.497Z,15.51
2017-07-29T02:30:42.470Z,15.48
2017-07-29T02:31:52.449Z,15.51
2017-07-29T02:33:02.729Z,15.5
2017-07-29T02:34:13.269Z,15.45
2017-07-29T02:35:23.243Z,15.52
2017-07-29T02:36:33.226Z,15.48
2017-07-29T02:37:43.189Z,15.5
2017-07-29T02:38:53.145Z,15.5
2017-07-29T02:40:03.352Z,15.45
2017-07-29T02:41:13.318Z,15.35
2017-07-29T02:42:23.291Z,15.44
2017-07-29T02:43:32.945Z,15.41
2017-07-29T02:44:43.210Z,15.41
2017-07-29T02:45:53.441Z,15.37
2017-07-29T02:47:03.721Z,15.37
2017-07-29T02:48:14.007Z,15.36
2017-07-29T02:49:24.283Z,15.37
2017-07-29T02:50:34.257Z,15.41
2017-07-29T02:51:44.780Z,15.41
2017-07-29T02:52:54.445Z,15.43
2017-07-29T02:54:04.714Z,15.48
2017-07-29T02:55:15.013Z,15.47
2017-07-29T02:56:24.984Z,15.43
2017-07-29T02:57:35.193Z,15.43
2017-07-29T02:58:45.148Z,15.44
2017-07-29T02:59:55.423Z,15.45
2017-07-29T03:01:05.712Z,15.54
2017-07-29T03:02:15.681Z,15.48
2017-07-29T03:03:25.899Z,15.43
2017-07-29T03:04:35.849Z,15.43
2017-07-29T03:05:46.131Z,15.48
2017-07-29T03:06:56.421Z,15.48
2017-07-29T03:08:06.698Z,15.45
2017-07-29T03:09:17.229Z,15.44
2017-07-29T03:10:27.507Z,15.48
2017-07-29T03:11:37.782Z,15.48
2017-07-29T03:12:48.068Z,15.44
2017-07-29T03:13:58.032Z,15.47
2017-07-29T03:15:08.560Z,15.48
2017-07-29T03:16:18.524Z,15.52
2017-07-29T03:17:28.811Z,15.44
2017-07-29T03:18:38.765Z,15.48
2017-07-29T03:19:48.733Z,15.47
2017-07-29T03:20:58.944Z,15.39
2017-07-29T03:22:08.891Z,15.43
2017-07-29T03:23:19.179Z,15.45
2017-07-29T03:24:29.464Z,15.44
2017-07-29T03:25:39.434Z,15.44
2017-07-29T03:26:49.659Z,15.36
2017-07-29T03:27:59.923Z,15.43
2017-07-29T03:29:10.199Z,15.35
2017-07-29T03:30:20.480Z,15.39
2017-07-29T03:31:30.146Z,15.45
2017-07-29T03:32:40.355Z,15.47
2017-07-29T03:33:50.618Z,15.47
2017-07-29T03:35:00.903Z,15.5
2017-07-29T03:36:11.193Z,15.48
2017-07-29T03:37:21.472Z,15.41
2017-07-29T03:38:31.683Z,15.47
2017-07-29T03:39:41.952Z,15.44
2017-07-29T03:40:52.210Z,15.54
2017-07-29T03:42:02.484Z,15.36
2017-07-29T03:43:12.767Z,15.44
2017-07-29T03:44:23.288Z,15.5
2017-07-29T03:45:33.566Z,15.45
2017-07-29T03:46:43.848Z,15.39
2017-07-29T03:47:54.130Z,15.48
2017-07-29T03:49:04.388Z,15.52
2017-07-29T03:50:14.607Z,15.5
2017-07-29T03:51:24.583Z,15.54
2017-07-29T03:52:34.857Z,15.59
2017-07-29T03:53:45.139Z,15.6
2017-07-29T03:54:55.420Z,15.57
2017-07-29T03:56:05.319Z,15.57
2017-07-29T03:57:14.982Z,15.63
2017-07-29T03:58:25.251Z,15.69
2017-07-29T03:59:35.236Z,15.65
2017-07-29T04:00:45.191Z,15.57
2017-07-29T04:01:55.402Z,15.6
2017-07-29T04:03:05.053Z,15.63
2017-07-29T04:04:15.018Z,15.62
2017-07-29T04:05:25.287Z,15.63
2017-07-29T04:06:35.550Z,15.6
2017-07-29T04:07:46.102Z,15.54
2017-07-29T04:08:56.369Z,15.52
2017-07-29T04:10:06.677Z,15.55
2017-07-29T04:11:16.966Z,15.55
2017-07-29T04:12:27.246Z,15.65
2017-07-29T04:13:37.782Z,15.7
2017-07-29T04:14:48.052Z,15.59
2017-07-29T04:15:58.341Z,15.67
2017-07-29T04:17:07.992Z,15.65
2017-07-29T04:18:17.952Z,15.75
2017-07-29T04:19:28.472Z,15.7
2017-07-29T04:20:38.446Z,15.7
2017-07-29T04:21:48.096Z,15.73
2017-07-29T04:22:58.078Z,15.73
2017-07-29T04:24:08.377Z,15.78
2017-07-29T04:25:18.585Z,15.84
2017-07-29T04:26:28.557Z,15.76
2017-07-29T04:27:38.847Z,15.76
2017-07-29T04:28:49.112Z,15.73
2017-07-29T04:29:59.388Z,15.83
2017-07-29T04:31:09.905Z,15.84
2017-07-29T04:32:20.201Z,15.8
2017-07-29T04:33:30.474Z,15.76
2017-07-29T04:34:40.444Z,15.85
2017-07-29T04:35:50.715Z,15.85
2017-07-29T04:37:01.235Z,15.91
2017-07-29T04:38:11.528Z,15.83
2017-07-29T04:39:21.507Z,15.88
2017-07-29T04:40:31.773Z,15.99
2017-07-29T04:41:42.044Z,15.92
2017-07-29T04:42:52.565Z,15.91
2017-07-29T04:44:02.219Z,15.94
2017-07-29T04:45:12.180Z,15.83
2017-07-29T04:46:22.154Z,15.88
2017-07-29T04:47:32.436Z,16
2017-07-29T04:48:42.653Z,16.03
2017-07-29T04:49:52.342Z,16
2017-07-29T04:51:02.317Z,16
2017-07-29T04:52:12.287Z,16.02
2017-07-29T04:53:22.247Z,16
2017-07-29T04:54:32.782Z,16.02
2017-07-29T04:55:43.058Z,16.03
2017-07-29T04:56:53.343Z,16.05
2017-07-29T04:58:03.632Z,16.03
2017-07-29T04:59:13.932Z,16.02
2017-07-29T05:00:24.157Z,16
2017-07-29T05:01:34.435Z,16.05
2017-07-29T05:02:44.707Z,16.02
2017-07-29T05:03:54.667Z,16
2017-07-29T05:05:04.640Z,16.02
2017-07-29T05:06:15.164Z,16
2017-07-29T05:07:25.124Z,16.02
2017-07-29T05:08:35.401Z,16.06
2017-07-29T05:09:45.688Z,16.03
2017-07-29T05:10:55.644Z,16.12
2017-07-29T05:12:06.212Z,16.12
2017-07-29T05:13:16.502Z,16.12
2017-07-29T05:14:26.169Z,16.12
2017-07-29T05:15:35.501Z,16.17
2017-07-29T05:16:45.771Z,16.16
2017-07-29T05:17:55.983Z,16.1
2017-07-29T05:19:06.255Z,16.24
2017-07-29T05:20:16.205Z,16.13
2017-07-29T05:21:26.485Z,16.21
2017-07-29T05:22:36.772Z,16.25
2017-07-29T05:23:46.977Z,16.28
2017-07-29T05:24:57.239Z,16.21
2017-07-29T05:26:07.212Z,16.24
2017-07-29T05:27:17.487Z,16.22
2017-07-29T05:28:26.833Z,16.28
2017-07-29T05:29:37.044Z,16.36
2017-07-29T05:30:47.309Z,16.34
2017-07-29T05:31:57.263Z,16.36
2017-07-29T05:33:07.239Z,16.37
2017-07-29T05:34:17.549Z,16.29
2017-07-29T05:35:28.083Z,16.39
2017-07-29T05:36:38.359Z,16.37
2017-07-29T05:37:48.640Z,16.37
2017-07-29T05:38:58.920Z,16.49
2017-07-29T05:40:09.212Z,16.32
2017-07-29T05:41:19.439Z,16.43
2017-07-29T05:42:29.436Z,16.46
2017-07-29T05:43:39.383Z,16.47
2017-07-29T05:44:49.024Z,16.46
2017-07-29T05:45:59.298Z,16.54
2017-07-29T05:47:09.518Z,16.64
2017-07-29T05:48:19.489Z,16.68
2017-07-29T05:49:29.763Z,16.73
2017-07-29T05:50:39.726Z,16.66
2017-07-29T05:51:49.997Z,16.8
2017-07-29T05:53:00.216Z,16.91
2017-07-29T05:54:09.557Z,16.84
2017-07-29T05:55:19.846Z,16.86
2017-07-29T05:56:30.118Z,16.98
2017-07-29T05:57:40.097Z,16.95
2017-07-29T05:58:50.621Z,17.01
2017-07-29T06:00:00.920Z,17.07
2017-07-29T06:01:11.210Z,17.13
2017-07-29T06:02:21.498Z,17.16
2017-07-29T06:03:31.154Z,17.17
2017-07-29T06:04:41.680Z,17.1
2017-07-29T06:05:51.651Z,17.17
2017-07-29T06:07:01.934Z,17.2
2017-07-29T06:08:12.453Z,17.2
2017-07-29T06:09:22.729Z,17.2
2017-07-29T06:10:33.259Z,17.23
2017-07-29T06:11:43.218Z,17.23
2017-07-29T06:12:53.500Z,17.27
2017-07-29T06:14:03.464Z,17.24
2017-07-29T06:15:13.751Z,17.24
2017-07-29T06:16:24.278Z,17.28
2017-07-29T06:17:34.553Z,17.3
2017-07-29T06:18:44.845Z,17.35
2017-07-29T06:19:54.814Z,17.52
2017-07-29T06:21:04.782Z,17.54
2017-07-29T06:22:19.453Z,17.49
2017-07-29T06:23:29.721Z,17.6
2017-07-29T06:24:40.011Z,17.71
2017-07-29T06:25:49.979Z,17.56
2017-07-29T06:27:00.251Z,17.63
2017-07-29T06:28:10.799Z,17.66
2017-07-29T06:29:21.089Z,17.65
2017-07-29T06:30:30.751Z,17.69
2017-07-29T06:31:40.734Z,17.66
2017-07-29T06:32:50.707Z,17.65
2017-07-29T06:34:01.294Z,17.65
2017-07-29T06:35:11.268Z,17.72
2017-07-29T06:36:21.547Z,17.65
2017-07-29T06:37:31.846Z,17.72
2017-07-29T06:38:41.819Z,17.75
2017-07-29T06:39:52.337Z,17.86
2017-07-29T06:41:02.631Z,17.84
2017-07-29T06:42:12.595Z,17.93
2017-07-29T06:43:22.886Z,18.06
2017-07-29T06:44:33.174Z,18.16
2017-07-29T06:45:42.785Z,18.13
2017-07-29T06:46:52.775Z,18.27
2017-07-29T06:48:03.058Z,18.21
2017-07-29T06:49:13.326Z,18.27
2017-07-29T06:50:22.965Z,18.13
2017-07-29T06:51:33.197Z,18.11
2017-07-29T06:52:43.172Z,18.02
2017-07-29T06:53:53.449Z,18.08
2017-07-29T06:55:03.424Z,18.11
2017-07-29T06:56:13.696Z,18.15
2017-07-29T06:57:23.910Z,18.23
2017-07-29T06:58:33.571Z,18.24
2017-07-29T06:59:43.854Z,18.19
2017-07-29T07:00:54.129Z,18.24
2017-07-29T07:02:04.427Z,18.28
2017-07-29T07:03:14.666Z,18.37
2017-07-29T07:04:24.631Z,18.31
2017-07-29T07:05:34.917Z,18.27
2017-07-29T07:06:44.898Z,18.27
2017-07-29T07:07:54.880Z,18.26
2017-07-29T07:09:05.085Z,18.37
2017-07-29T07:10:15.356Z,18.48
2017-07-29T07:11:25.626Z,18.37
2017-07-29T07:12:35.913Z,18.34
2017-07-29T07:13:46.186Z,18.36
2017-07-29T07:14:56.404Z,18.34
2017-07-29T07:16:06.684Z,18.34
2017-07-29T07:17:16.664Z,18.34
2017-07-29T07:18:26.939Z,18.45
2017-07-29T07:19:37.235Z,18.46
2017-07-29T07:20:47.768Z,18.43
2017-07-29T07:21:57.771Z,18.45
2017-07-29T07:23:08.043Z,18.43
2017-07-29T07:24:17.700Z,18.51
2017-07-29T07:25:27.996Z,18.58
2017-07-29T07:26:37.926Z,18.53
2017-07-29T07:27:48.201Z,18.63
2017-07-29T07:28:58.485Z,18.73
2017-07-29T07:30:08.764Z,18.7
2017-07-29T07:31:19.034Z,18.88
2017-07-29T07:32:29.252Z,18.76
2017-07-29T07:33:39.511Z,18.76
2017-07-29T07:34:49.821Z,18.78
2017-07-29T07:36:00.118Z,18.78
2017-07-29T07:37:10.082Z,18.85
2017-07-29T07:38:20.613Z,18.85
2017-07-29T07:39:30.902Z,18.85
2017-07-29T07:40:41.187Z,18.96
2017-07-29T07:41:51.158Z,18.92
2017-07-29T07:43:01.431Z,18.89
2017-07-29T07:44:11.649Z,18.89
2017-07-29T07:45:21.939Z,18.89
2017-07-29T07:46:32.236Z,18.89
2017-07-29T07:47:42.207Z,18.98
2017-07-29T07:48:52.176Z,18.98
2017-07-29T07:50:02.385Z,18.96
2017-07-29T07:51:12.675Z,19.04
2017-07-29T07:52:22.946Z,19.05
2017-07-29T07:53:32.922Z,19.05
2017-07-29T07:54:43.206Z,19.05
2017-07-29T07:55:53.441Z,19.12
2017-07-29T07:57:03.710Z,19.09
2017-07-29T07:58:13.683Z,19.05
2017-07-29T07:59:23.653Z,19.07
2017-07-29T08:00:33.947Z,19.08
2017-07-29T08:01:44.531Z,19.05
2017-07-29T08:02:54.804Z,19.11
2017-07-29T08:04:05.100Z,19.01
2017-07-29T08:05:15.370Z,19.08
2017-07-29T08:06:25.662Z,19.07
2017-07-29T08:07:35.876Z,19.07
2017-07-29T08:08:46.142Z,19.19
2017-07-29T08:09:56.094Z,19.27
2017-07-29T08:11:06.369Z,19.35
2017-07-29T08:12:16.334Z,19.41
2017-07-29T08:13:26.858Z,19.47
2017-07-29T08:14:36.825Z,19.56
2017-07-29T08:15:47.105Z,19.66
2017-07-29T08:16:57.065Z,19.72
2017-07-29T08:18:07.358Z,19.67
2017-07-29T08:19:17.574Z,19.75
2017-07-29T08:20:27.232Z,19.85
2017-07-29T08:21:37.507Z,20.04
2017-07-29T08:22:47.826Z,20.29
2017-07-29T08:23:58.126Z,20.33
2017-07-29T08:25:08.658Z,20.48
2017-07-29T08:26:18.634Z,20.42
2017-07-29T08:27:28.941Z,20.44
2017-07-29T08:28:39.234Z,20.52
2017-07-29T08:29:49.509Z,20.55
2017-07-29T08:31:00.052Z,20.63
2017-07-29T08:32:10.044Z,20.71
2017-07-29T08:33:20.320Z,20.73
2017-07-29T08:34:30.613Z,20.78
2017-07-29T08:35:40.283Z,20.8
2017-07-29T08:36:50.854Z,20.86
2017-07-29T08:38:01.152Z,20.96
2017-07-29T08:39:11.125Z,21.05
2017-07-29T08:40:21.438Z,21.1
2017-07-29T08:41:31.728Z,21.23
2017-07-29T08:42:42.239Z,21.29
2017-07-29T08:43:52.195Z,21.29
2017-07-29T08:45:02.482Z,21.4
2017-07-29T08:46:12.473Z,21.66
2017-07-29T08:47:22.442Z,21.77
2017-07-29T08:48:32.671Z,21.96
2017-07-29T08:49:42.960Z,21.92
2017-07-29T08:50:52.920Z,21.99
2017-07-29T08:52:02.903Z,22.21
2017-07-29T08:53:13.194Z,22.18
2017-07-29T08:54:23.415Z,22.26
2017-07-29T08:55:33.687Z,22.37
2017-07-29T08:56:43.354Z,22.33
2017-07-29T08:57:53.635Z,22.56
2017-07-29T08:59:03.604Z,22.65
2017-07-29T09:00:13.829Z,22.76
2017-07-29T09:01:23.811Z,22.92
2017-07-29T09:02:33.789Z,23.04
2017-07-29T09:03:44.083Z,23.01
2017-07-29T09:04:54.084Z,23.07
2017-07-29T09:06:04.615Z,23.29
2017-07-29T09:07:14.909Z,23.44
2017-07-29T09:08:24.882Z,23.37
2017-07-29T09:09:34.853Z,23.29
2017-07-29T09:10:45.143Z,23.14
2017-07-29T09:11:55.384Z,23.08
2017-07-29T09:13:05.678Z,23.18
2017-07-29T09:14:15.348Z,23.13
2017-07-29T09:15:25.646Z,23.07
2017-07-29T09:16:35.312Z,23.14
2017-07-29T09:17:45.842Z,23.13
2017-07-29T09:18:56.114Z,23.13
2017-07-29T09:20:06.387Z,23.21
2017-07-29T09:21:16.361Z,23.36
2017-07-29T09:22:26.685Z,23.48
2017-07-29T09:23:37.215Z,23.71
2017-07-29T09:24:47.175Z,23.84
2017-07-29T09:25:57.144Z,23.88
2017-07-29T09:27:07.453Z,23.85
2017-07-29T09:28:17.441Z,23.95
2017-07-29T09:29:27.678Z,23.82
2017-07-29T09:30:37.666Z,24.06
2017-07-29T09:31:47.960Z,24.13
2017-07-29T09:32:58.256Z,24.25
2017-07-29T09:34:08.551Z,24.32
2017-07-29T09:35:19.099Z,24.36
2017-07-29T09:36:29.375Z,24.4
2017-07-29T09:37:39.352Z,24.19
2017-07-29T09:38:49.644Z,24.13
2017-07-29T09:39:59.630Z,24.07
2017-07-29T09:41:10.173Z,23.91
2017-07-29T09:42:20.148Z,23.71
2017-07-29T09:43:29.833Z,23.91
2017-07-29T09:44:40.134Z,24.06
2017-07-29T09:45:50.427Z,24.22
2017-07-29T09:47:00.656Z,24.24
2017-07-29T09:48:10.949Z,24.56
2017-07-29T09:49:20.957Z,24.68
2017-07-29T09:50:31.245Z,24.74
2017-07-29T09:51:41.248Z,24.86
2017-07-29T09:52:51.838Z,24.88
2017-07-29T09:54:02.146Z,24.85
2017-07-29T09:55:12.461Z,24.69
2017-07-29T09:56:22.769Z,24.71
2017-07-29T09:57:33.041Z,24.55
2017-07-29T09:58:43.595Z,24.36
2017-07-29T09:59:53.569Z,24.29
2017-07-29T10:01:03.879Z,24.29
2017-07-29T10:02:13.863Z,24.29
2017-07-29T10:03:23.539Z,24.43
2017-07-29T10:04:34.083Z,24.41
2017-07-29T10:05:44.367Z,24.58
2017-07-29T10:06:54.344Z,24.66
2017-07-29T10:08:04.639Z,24.74
2017-07-29T10:09:14.953Z,24.81
2017-07-29T10:10:25.193Z,24.79
2017-07-29T10:11:35.475Z,24.75
2017-07-29T10:12:45.777Z,25.06
2017-07-29T10:13:55.768Z,25.01
2017-07-29T10:15:05.756Z,25.09
2017-07-29T10:16:15.996Z,25.19
2017-07-29T10:17:25.664Z,25.3
2017-07-29T10:18:35.319Z,25.36
2017-07-29T10:19:44.994Z,25.39
2017-07-29T10:20:55.268Z,25.48
2017-07-29T10:22:05.812Z,25.58
2017-07-29T10:23:15.792Z,25.59
2017-07-29T10:24:26.071Z,25.54
2017-07-29T10:25:36.360Z,25.54
2017-07-29T10:26:46.335Z,25.49
2017-07-29T10:27:56.878Z,25.58
2017-07-29T10:29:06.554Z,25.62
2017-07-29T10:30:16.846Z,25.46
2017-07-29T10:31:27.159Z,25.37
2017-07-29T10:32:37.452Z,25.46
2017-07-29T10:33:47.364Z,25.54
2017-07-29T10:34:57.656Z,25.48
2017-07-29T10:36:07.659Z,25.43
2017-07-29T10:37:17.950Z,25.48
2017-07-29T10:38:28.248Z,25.61
2017-07-29T10:39:38.792Z,25.68
2017-07-29T10:40:48.481Z,25.62
2017-07-29T10:41:58.778Z,25.76
2017-07-29T10:43:09.061Z,25.76
2017-07-29T10:44:19.352Z,25.81
2017-07-29T10:45:29.892Z,25.93
2017-07-29T10:46:40.198Z,25.83
2017-07-29T10:47:50.494Z,25.96
2017-07-29T10:49:00.808Z,25.92
2017-07-29T10:50:10.807Z,26.07
2017-07-29T10:51:21.027Z,26.23
2017-07-29T10:52:31.311Z,26.37
2017-07-29T10:53:41.603Z,26.63
2017-07-29T10:54:51.589Z,26.6
2017-07-29T10:56:01.875Z,26.91
2017-07-29T10:57:12.104Z,26.85
2017-07-29T10:58:22.421Z,26.55
2017-07-29T10:59:32.709Z,26.48
2017-07-29T11:00:42.716Z,26.24
2017-07-29T11:01:52.705Z,26.03
2017-07-29T11:03:03.273Z,25.92
2017-07-29T11:04:13.588Z,25.95
2017-07-29T11:05:23.567Z,25.91
2017-07-29T11:06:33.558Z,25.78
2017-07-29T11:07:43.546Z,25.83
2017-07-29T11:08:54.101Z,25.81
2017-07-29T11:10:04.391Z,25.71
2017-07-29T11:11:14.664Z,25.56
2017-07-29T11:12:24.658Z,25.56
2017-07-29T11:13:34.642Z,25.24
2017-07-29T11:14:45.201Z,25.14
2017-07-29T11:15:55.190Z,25.04
2017-07-29T11:17:05.484Z,25.16
2017-07-29T11:18:15.793Z,25.15
2017-07-29T11:19:25.772Z,25.09
2017-07-29T11:20:36.317Z,25.22
2017-07-29T11:21:46.608Z,25.16
2017-07-29T11:22:56.893Z,25.07
2017-07-29T11:24:07.166Z,24.97
2017-07-29T11:25:17.450Z,24.88
2017-07-29T11:26:27.684Z,24.99
2017-07-29T11:27:37.984Z,25.03
2017-07-29T11:28:47.950Z,24.96
2017-07-29T11:29:57.935Z,24.94
2017-07-29T11:31:07.913Z,24.99
2017-07-29T11:32:18.451Z,24.88
2017-07-29T11:33:28.425Z,24.84
2017-07-29T11:34:38.707Z,24.79
2017-07-29T11:35:48.700Z,24.86
2017-07-29T11:36:58.664Z,24.81
2017-07-29T11:38:09.205Z,24.82
2017-07-29T11:39:19.162Z,25.03
2017-07-29T11:40:28.823Z,25
2017-07-29T11:41:39.092Z,25.03
2017-07-29T11:42:49.417Z,24.89
2017-07-29T11:43:59.319Z,24.96
2017-07-29T11:45:09.278Z,24.89
2017-07-29T11:46:19.268Z,25.04
2017-07-29T11:47:29.255Z,25.01
2017-07-29T11:48:39.558Z,25.14
2017-07-29T11:49:50.097Z,25.34
2017-07-29T11:51:00.079Z,25.46
2017-07-29T11:52:10.373Z,25.48
2017-07-29T11:53:20.677Z,25.4
2017-07-29T11:54:30.963Z,25.51
2017-07-29T11:55:41.515Z,25.51
2017-07-29T11:56:51.493Z,25.51
2017-07-29T11:58:01.797Z,25.54
2017-07-29T11:59:12.090Z,25.39
2017-07-29T12:00:22.377Z,25.31
2017-07-29T12:01:32.921Z,25.43
2017-07-29T12:02:43.198Z,25.49
2017-07-29T12:03:53.470Z,25.76
2017-07-29T12:05:03.762Z,25.92
2017-07-29T12:06:14.049Z,26.15
2017-07-29T12:07:24.644Z,26.15
2017-07-29T12:08:34.613Z,26.26
2017-07-29T12:09:44.917Z,26.24
2017-07-29T12:10:55.218Z,26.19
2017-07-29T12:12:05.195Z,26.06
2017-07-29T12:13:14.806Z,26.03
2017-07-29T12:14:25.090Z,26.07
2017-07-29T12:15:35.371Z,26.23
2017-07-29T12:16:45.681Z,26.16
2017-07-29T12:17:55.981Z,26.03
2017-07-29T12:19:06.521Z,25.95
2017-07-29T12:20:16.487Z,25.78
2017-07-29T12:21:26.786Z,25.77
2017-07-29T12:22:37.083Z,25.86
2017-07-29T12:23:47.391Z,25.86
2017-07-29T12:24:57.614Z,25.7
2017-07-29T12:26:07.909Z,25.48
2017-07-29T12:27:18.197Z,25.3
2017-07-29T12:28:28.490Z,25.11
2017-07-29T12:29:38.462Z,25.09
2017-07-29T12:30:48.382Z,25.18
2017-07-29T12:31:58.670Z,25.21
2017-07-29T12:33:08.349Z,25.29
2017-07-29T12:34:18.648Z,25.37
2017-07-29T12:35:28.935Z,25.44
2017-07-29T12:36:38.869Z,25.4
2017-07-29T12:37:49.158Z,25.66
2017-07-29T12:38:59.460Z,25.76
2017-07-29T12:40:09.752Z,25.78
2017-07-29T12:41:19.444Z,25.92
2017-07-29T12:42:29.970Z,26.01
2017-07-29T12:43:40.273Z,26.04
2017-07-29T12:44:50.591Z,26.22
2017-07-29T12:46:00.570Z,26.6
2017-07-29T12:47:10.860Z,26.79
2017-07-29T12:48:21.340Z,26.91
2017-07-29T12:49:31.649Z,27.1
2017-07-29T12:50:41.949Z,27.28
2017-07-29T12:51:51.937Z,27.22
2017-07-29T12:53:02.252Z,27.47
2017-07-29T12:54:12.488Z,27.75
2017-07-29T12:55:22.800Z,28.01
2017-07-29T12:56:33.109Z,28.18
2017-07-29T12:57:43.101Z,28.12
2017-07-29T12:58:53.392Z,28.23
2017-07-29T13:00:03.620Z,28.25
2017-07-29T13:01:13.924Z,28.31
2017-07-29T13:02:24.213Z,28.28
2017-07-29T13:03:34.195Z,28.23
2017-07-29T13:04:44.486Z,28.31
2017-07-29T13:05:55.032Z,28.25
2017-07-29T13:07:05.338Z,28.3
2017-07-29T13:08:15.308Z,28.23
2017-07-29T13:09:25.290Z,28.16
2017-07-29T13:10:35.576Z,27.85
2017-07-29T13:11:45.811Z,27.72
2017-07-29T13:12:55.170Z,27.73
2017-07-29T13:14:05.158Z,27.66
2017-07-29T13:15:15.134Z,27.78
2017-07-29T13:16:25.423Z,27.68
2017-07-29T13:17:35.987Z,27.78
2017-07-29T13:18:45.984Z,27.68
2017-07-29T13:19:55.958Z,27.78
2017-07-29T13:21:05.924Z,27.85
2017-07-29T13:22:15.893Z,27.66
2017-07-29T13:23:26.438Z,27.73
2017-07-29T13:24:36.721Z,27.6
2017-07-29T13:25:46.999Z,27.6
2017-07-29T13:26:57.282Z,27.58
2017-07-29T13:28:07.262Z,27.53
2017-07-29T13:29:17.520Z,27.58
2017-07-29T13:30:27.511Z,27.66
2017-07-29T13:31:37.481Z,27.68
2017-07-29T13:32:47.780Z,27.64
2017-07-29T13:33:58.105Z,27.66
2017-07-29T13:35:08.649Z,27.72
2017-07-29T13:36:18.655Z,27.76
2017-07-29T13:37:28.943Z,27.61
2017-07-29T13:38:38.917Z,27.75
2017-07-29T13:39:48.910Z,27.57
2017-07-29T13:40:59.136Z,27.64
2017-07-29T13:42:09.130Z,27.71
2017-07-29T13:43:19.114Z,27.52
2017-07-29T13:44:29.111Z,27.5
2017-07-29T13:45:39.087Z,27.33
2017-07-29T13:46:49.007Z,27.13
2017-07-29T13:47:58.976Z,27.03
2017-07-29T13:49:08.966Z,26.93
2017-07-29T13:50:18.651Z,26.85
2017-07-29T13:51:28.015Z,26.76
2017-07-29T13:52:38.562Z,26.68
2017-07-29T13:53:48.536Z,26.49
2017-07-29T13:54:58.837Z,26.51
2017-07-29T13:56:09.130Z,26.46
2017-07-29T13:57:19.138Z,26.41
2017-07-29T13:58:29.695Z,26.41
2017-07-29T13:59:39.987Z,26.53
2017-07-29T14:00:49.951Z,26.68
2017-07-29T14:02:00.249Z,26.88
2017-07-29T14:03:10.544Z,27.34
2017-07-29T14:04:20.858Z,27.75
2017-07-29T14:05:30.833Z,28.04
2017-07-29T14:06:40.797Z,28.15
2017-07-29T14:07:50.783Z,28.01
2017-07-29T14:09:01.065Z,28.37
2017-07-29T14:10:11.608Z,28.18
2017-07-29T14:11:21.591Z,28
2017-07-29T14:12:31.895Z,28.01
2017-07-29T14:13:41.888Z,28.31
2017-07-29T14:14:52.194Z,28.52
2017-07-29T14:16:02.737Z,28.38
2017-07-29T14:17:12.735Z,28.22
2017-07-29T14:18:22.716Z,27.9
2017-07-29T14:19:33.026Z,27.6
2017-07-29T14:20:43.337Z,27.6
2017-07-29T14:21:53.916Z,27.47
2017-07-29T14:23:04.209Z,27.55
2017-07-29T14:24:14.525Z,27.6
2017-07-29T14:25:24.524Z,27.55
2017-07-29T14:26:34.194Z,27.5
2017-07-29T14:27:44.413Z,27.4
2017-07-29T14:28:54.720Z,27.07
2017-07-29T14:30:04.378Z,26.7
2017-07-29T14:31:14.654Z,26.46
2017-07-29T14:32:24.306Z,26.41
2017-07-29T14:33:34.540Z,26.34
2017-07-29T14:34:44.824Z,26.34
2017-07-29T14:35:55.111Z,26.44
2017-07-29T14:37:05.399Z,26.46
2017-07-29T14:38:15.679Z,26.46
2017-07-29T14:39:26.224Z,26.74
2017-07-29T14:40:36.209Z,26.93
2017-07-29T14:41:46.169Z,26.93
2017-07-29T14:42:56.460Z,27.07
2017-07-29T14:44:06.745Z,27.34
2017-07-29T14:45:16.962Z,27.35
2017-07-29T14:46:26.934Z,27.6
2017-07-29T14:47:37.217Z,27.83
2017-07-29T14:48:47.506Z,27.73
2017-07-29T14:49:57.485Z,27.78
2017-07-29T14:51:07.705Z,27.58
2017-07-29T14:52:17.999Z,27.48
2017-07-29T14:53:28.298Z,27.44
2017-07-29T14:54:38.580Z,27.26
2017-07-29T14:55:48.553Z,27.37
2017-07-29T14:56:59.105Z,27.19
2017-07-29T14:58:09.400Z,27.13
2017-07-29T14:59:19.373Z,27.01
2017-07-29T15:00:29.347Z,27.07
2017-07-29T15:01:39.635Z,27.26
2017-07-29T15:02:49.853Z,27.58
2017-07-29T15:03:59.522Z,27.45
2017-07-29T15:05:09.511Z,27.53
2017-07-29T15:06:19.483Z,27.43
2017-07-29T15:07:29.806Z,27.6